createdAt,value
2018-03-26T00:00:12.504Z,25.50
2018-03-26T00:02:41.685Z,25.60
2018-03-26T00:05:10.925Z,26.10
2018-03-26T00:07:40.180Z,26.33
2018-03-26T00:10:09.452Z,25.50
2018-03-26T00:12:38.700Z,21.60
2018-03-26T00:15:07.897Z,22.73
2018-03-26T00:17:37.233Z,21.90
2018-03-26T00:20:07.293Z,22.73
2018-03-26T00:22:36.519Z,22.17
2018-03-26T00:25:05.735Z,21.50
2018-03-26T00:27:35.029Z,23.03
2018-03-26T00:30:04.274Z,25.07
2018-03-26T00:32:34.375Z,23.73
2018-03-26T00:35:03.585Z,23.53
2018-03-26T00:37:32.846Z,23.80
2018-03-26T00:40:02.774Z,24.00
2018-03-26T00:42:32.854Z,23.57
2018-03-26T00:45:02.079Z,25.80
2018-03-26T00:47:31.288Z,29.27
2018-03-26T00:50:00.537Z,27.00
2018-03-26T00:52:29.908Z,29.40
2018-03-26T00:54:59.129Z,28.63
2018-03-26T00:57:29.247Z,27.53
2018-03-26T00:59:58.557Z,25.47
2018-03-26T01:02:27.774Z,30.20
2018-03-26T01:04:56.962Z,30.63
2018-03-26T01:07:26.175Z,29.40
2018-03-26T01:09:55.487Z,28.20
2018-03-26T01:12:24.821Z,28.73
2018-03-26T01:14:54.052Z,22.77
2018-03-26T01:17:23.343Z,25.67
2018-03-26T01:19:52.621Z,25.87
2018-03-26T01:22:21.890Z,25.97
2018-03-26T01:24:51.891Z,25.10
2018-03-26T01:27:21.118Z,25.53
2018-03-26T01:29:54.861Z,25.43
2018-03-26T01:32:25.929Z,23.33
2018-03-26T01:34:56.126Z,26.63
2018-03-26T01:37:25.309Z,25.87
2018-03-26T01:39:54.579Z,28.07
2018-03-26T01:45:24.169Z,24.47
2018-03-26T01:47:53.404Z,33.40
2018-03-26T01:50:27.104Z,30.70
2018-03-26T01:52:56.380Z,26.27
2018-03-26T01:55:25.583Z,26.00
2018-03-26T01:57:54.805Z,22.87
2018-03-26T02:00:24.780Z,25.27
2018-03-26T02:02:54.043Z,25.27
2018-03-26T02:05:23.320Z,24.23
2018-03-26T02:07:52.529Z,27.87
2018-03-26T02:10:21.786Z,27.67
2018-03-26T02:12:51.029Z,26.20
2018-03-26T02:15:20.212Z,27.73
2018-03-26T02:17:53.922Z,28.43
2018-03-26T02:20:36.693Z,24.70
2018-03-26T02:23:05.886Z,27.33
2018-03-26T02:25:35.121Z,25.07
2018-03-26T02:28:04.331Z,28.07
2018-03-26T02:30:33.502Z,25.30
2018-03-26T02:33:02.855Z,25.90
2018-03-26T02:35:32.130Z,29.63
2018-03-26T02:38:07.004Z,25.53
2018-03-26T02:40:36.205Z,25.87
2018-03-26T02:43:05.442Z,30.30
2018-03-26T02:45:35.446Z,30.17
2018-03-26T02:48:04.677Z,28.23
2018-03-26T02:50:36.048Z,29.80
2018-03-26T02:53:05.260Z,29.37
2018-03-26T02:55:34.558Z,25.70
2018-03-26T02:58:12.336Z,30.07
2018-03-26T03:00:41.557Z,31.57
2018-03-26T03:03:10.803Z,31.23
2018-03-26T03:05:40.291Z,29.70
2018-03-26T03:08:09.515Z,32.40
2018-03-26T03:10:38.837Z,28.27
2018-03-26T03:13:08.080Z,29.70
2018-03-26T03:15:38.056Z,29.23
2018-03-26T03:18:07.269Z,31.27
2018-03-26T03:20:36.505Z,32.97
2018-03-26T03:23:05.712Z,29.67
2018-03-26T03:25:34.904Z,29.70
2018-03-26T03:28:04.118Z,31.20
2018-03-26T03:30:34.630Z,31.40
2018-03-26T03:33:03.979Z,31.10
2018-03-26T03:35:33.195Z,34.40
2018-03-26T03:38:02.500Z,31.80
2018-03-26T03:40:31.740Z,29.90
2018-03-26T03:43:01.822Z,30.80
2018-03-26T03:45:31.163Z,32.80
2018-03-26T03:48:00.477Z,34.00
2018-03-26T03:50:29.737Z,31.17
2018-03-26T03:52:59.681Z,29.60
2018-03-26T03:55:28.886Z,33.37
2018-03-26T03:57:58.082Z,34.07
2018-03-26T04:00:28.070Z,28.83
2018-03-26T04:02:57.384Z,28.77
2018-03-26T04:05:26.611Z,34.03
2018-03-26T04:07:55.901Z,32.13
2018-03-26T04:10:25.192Z,31.93
2018-03-26T04:12:57.937Z,30.90
2018-03-26T04:15:27.948Z,32.00
2018-03-26T04:17:57.184Z,29.87
2018-03-26T04:20:26.418Z,31.20
2018-03-26T04:22:56.418Z,30.67
2018-03-26T04:25:26.431Z,32.63
2018-03-26T04:27:55.620Z,32.67
2018-03-26T04:30:24.877Z,34.50
2018-03-26T04:32:55.100Z,26.27
2018-03-26T04:35:25.131Z,34.10
2018-03-26T04:37:54.357Z,29.83
2018-03-26T04:40:24.352Z,31.17
2018-03-26T04:45:53.896Z,31.37
2018-03-26T04:48:33.411Z,33.17
2018-03-26T04:51:03.400Z,29.23
2018-03-26T04:53:32.739Z,30.70
2018-03-26T04:56:02.006Z,31.83
2018-03-26T04:58:36.914Z,31.93
2018-03-26T05:01:06.193Z,33.00
2018-03-26T05:03:37.212Z,31.67
2018-03-26T05:06:07.551Z,32.13
2018-03-26T05:08:36.818Z,31.20
2018-03-26T05:11:06.091Z,41.73
2018-03-26T05:13:36.065Z,36.07
2018-03-26T05:16:06.101Z,36.03
2018-03-26T05:18:35.320Z,36.10
2018-03-26T05:21:04.532Z,33.30
2018-03-26T05:23:33.754Z,34.13
2018-03-26T05:26:02.972Z,32.77
2018-03-26T05:28:32.192Z,32.67
2018-03-26T05:31:01.469Z,34.50
2018-03-26T05:33:30.836Z,30.80
2018-03-26T05:36:00.869Z,33.47
2018-03-26T05:38:50.028Z,30.03
2018-03-26T05:41:19.329Z,33.20
2018-03-26T05:43:48.571Z,30.20
2018-03-26T05:46:17.793Z,33.33
2018-03-26T05:48:47.888Z,27.13
2018-03-26T05:51:17.205Z,31.63
2018-03-26T05:53:46.403Z,35.27
2018-03-26T05:56:15.690Z,34.60
2018-03-26T05:58:45.125Z,32.73
2018-03-26T06:01:14.410Z,32.30
2018-03-26T06:03:43.668Z,32.80
2018-03-26T06:06:12.890Z,29.37
2018-03-26T06:08:42.101Z,29.43
2018-03-26T06:11:11.338Z,34.43
2018-03-26T06:13:40.606Z,31.37
2018-03-26T06:16:09.818Z,32.10
2018-03-26T06:18:39.086Z,28.83
2018-03-26T06:21:09.085Z,30.50
2018-03-26T06:23:38.351Z,30.33
2018-03-26T06:26:07.603Z,31.53
2018-03-26T06:28:36.861Z,28.80
2018-03-26T06:31:06.083Z,29.17
2018-03-26T06:33:35.334Z,26.87
2018-03-26T06:36:22.297Z,28.50
2018-03-26T06:38:54.886Z,29.27
2018-03-26T06:41:24.165Z,30.27
2018-03-26T06:43:53.371Z,31.00
2018-03-26T06:46:22.678Z,32.53
2018-03-26T06:48:51.990Z,31.87
2018-03-26T06:51:21.302Z,27.37
2018-03-26T06:53:50.490Z,33.77
2018-03-26T06:56:19.682Z,35.53
2018-03-26T06:58:48.970Z,31.90
2018-03-26T07:01:19.070Z,32.93
2018-03-26T07:03:48.283Z,32.50
2018-03-26T07:06:17.497Z,32.97
2018-03-26T07:08:46.722Z,30.53
2018-03-26T07:11:15.951Z,34.57
2018-03-26T07:13:45.940Z,33.60
2018-03-26T07:16:15.168Z,36.17
2018-03-26T07:18:44.464Z,34.93
2018-03-26T07:21:13.877Z,39.07
2018-03-26T07:23:43.109Z,33.67
2018-03-26T07:26:12.319Z,34.90
2018-03-26T07:28:41.526Z,32.17
2018-03-26T07:31:10.762Z,36.40
2018-03-26T07:33:40.842Z,32.50
2018-03-26T07:36:10.053Z,39.87
2018-03-26T07:38:39.340Z,38.10
2018-03-26T07:41:08.629Z,36.83
2018-03-26T07:43:37.844Z,37.77
2018-03-26T07:46:07.829Z,34.90
2018-03-26T07:48:37.289Z,29.37
2018-03-26T07:51:06.496Z,35.37
2018-03-26T07:53:36.587Z,38.57
2018-03-26T07:56:05.819Z,34.00
2018-03-26T07:58:35.055Z,35.63
2018-03-26T08:01:04.342Z,41.27
2018-03-26T08:03:33.530Z,34.90
2018-03-26T08:06:02.780Z,30.17
2018-03-26T08:08:31.998Z,34.87
2018-03-26T08:11:02.023Z,37.20
2018-03-26T08:13:31.400Z,40.03
2018-03-26T08:16:00.611Z,38.20
2018-03-26T08:18:29.840Z,37.03
2018-03-26T08:20:59.130Z,44.13
2018-03-26T08:23:28.341Z,34.93
2018-03-26T08:25:57.582Z,36.27
2018-03-26T08:28:26.781Z,30.60
2018-03-26T08:30:56.131Z,39.17
2018-03-26T08:33:25.317Z,39.47
2018-03-26T08:35:55.422Z,39.50
2018-03-26T08:38:24.655Z,37.00
2018-03-26T08:40:54.675Z,37.33
2018-03-26T08:43:23.976Z,34.00
2018-03-26T08:45:53.178Z,34.07
2018-03-26T08:48:22.393Z,34.20
2018-03-26T08:50:51.643Z,29.30
2018-03-26T08:53:23.095Z,36.33
2018-03-26T08:55:50.290Z,33.13
2018-03-26T08:58:20.257Z,41.77
2018-03-26T09:00:49.577Z,30.43
2018-03-26T09:03:18.757Z,38.70
2018-03-26T09:05:48.039Z,37.97
2018-03-26T09:08:17.312Z,38.13
2018-03-26T09:10:46.532Z,36.63
2018-03-26T09:13:15.849Z,43.03
2018-03-26T09:15:45.031Z,36.33
2018-03-26T09:18:14.301Z,35.97
2018-03-26T09:20:44.392Z,36.87
2018-03-26T09:23:13.609Z,39.70
2018-03-26T09:25:42.811Z,37.00
2018-03-26T09:28:12.047Z,37.50
2018-03-26T09:30:41.246Z,36.70
2018-03-26T09:33:10.483Z,38.57
2018-03-26T09:35:39.757Z,37.20
2018-03-26T09:38:08.993Z,39.70
2018-03-26T09:40:38.998Z,32.23
2018-03-26T09:43:08.310Z,37.70
2018-03-26T09:45:37.724Z,39.20
2018-03-26T09:48:06.967Z,35.97
2018-03-26T09:50:36.158Z,38.80
2018-03-26T09:53:05.381Z,37.43
2018-03-26T09:55:34.671Z,40.47
2018-03-26T09:58:03.982Z,40.03
2018-03-26T10:00:38.706Z,41.43
2018-03-26T10:03:07.952Z,42.03
2018-03-26T10:05:37.252Z,42.03
2018-03-26T10:08:06.456Z,41.63
2018-03-26T10:10:35.675Z,43.33
2018-03-26T10:13:04.981Z,41.27
2018-03-26T10:15:34.192Z,42.13
2018-03-26T10:18:03.414Z,40.63
2018-03-26T10:20:32.675Z,39.67
2018-03-26T10:23:02.029Z,41.50
2018-03-26T10:25:31.282Z,43.73
2018-03-26T10:28:00.496Z,40.47
2018-03-26T10:30:30.538Z,43.87
2018-03-26T10:32:59.756Z,41.10
2018-03-26T10:35:29.697Z,43.00
2018-03-26T10:37:59.006Z,41.17
2018-03-26T10:40:28.351Z,43.20
2018-03-26T10:42:57.658Z,39.23
2018-03-26T10:45:26.887Z,38.97
2018-03-26T10:47:56.129Z,39.47
2018-03-26T10:50:25.305Z,42.33
2018-03-26T10:52:54.617Z,38.93
2018-03-26T10:55:23.831Z,40.47
2018-03-26T10:57:53.060Z,44.13
2018-03-26T11:00:22.330Z,34.20
2018-03-26T11:02:51.554Z,41.60
2018-03-26T11:05:20.797Z,43.33
2018-03-26T11:07:50.042Z,44.50
2018-03-26T11:10:19.198Z,41.80
2018-03-26T11:12:48.414Z,40.73
2018-03-26T11:15:17.595Z,43.87
2018-03-26T11:17:46.916Z,39.30
2018-03-26T11:20:16.106Z,60.50
2018-03-26T11:22:45.459Z,50.43
2018-03-26T11:25:14.691Z,42.63
2018-03-26T11:27:43.906Z,36.30
2018-03-26T11:30:13.176Z,39.73
2018-03-26T11:32:42.455Z,41.73
2018-03-26T11:35:11.703Z,44.83
2018-03-26T11:37:40.898Z,40.03
2018-03-26T11:40:10.144Z,43.47
2018-03-26T11:42:39.436Z,39.33
2018-03-26T11:45:08.644Z,44.13
2018-03-26T11:47:37.925Z,41.90
2018-03-26T11:50:07.145Z,44.73
2018-03-26T11:52:36.342Z,38.93
2018-03-26T11:55:06.273Z,42.23
2018-03-26T11:57:35.486Z,38.13
2018-03-26T12:00:05.424Z,33.13
2018-03-26T12:02:34.759Z,37.47
2018-03-26T12:05:03.950Z,37.63
2018-03-26T12:07:34.306Z,39.30
2018-03-26T12:10:03.502Z,39.47
2018-03-26T12:12:32.827Z,33.87
2018-03-26T12:15:02.042Z,36.40
2018-03-26T12:17:31.289Z,36.00
2018-03-26T12:20:12.417Z,30.57
2018-03-26T12:22:41.659Z,29.80
2018-03-26T12:25:13.572Z,29.37
2018-03-26T12:27:54.677Z,26.53
2018-03-26T12:30:25.569Z,32.67
2018-03-26T12:32:54.779Z,33.00
2018-03-26T12:35:35.769Z,32.30
2018-03-26T12:38:04.984Z,30.27
2018-03-26T12:40:45.858Z,30.07
2018-03-26T12:43:15.071Z,31.13
2018-03-26T12:45:56.011Z,27.67
2018-03-26T12:48:25.175Z,28.63
2018-03-26T12:51:06.160Z,29.30
2018-03-26T12:56:45.056Z,25.50
2018-03-26T12:59:14.240Z,25.53
2018-03-26T13:05:03.252Z,25.63
2018-03-26T13:07:32.448Z,25.53
2018-03-26T13:10:01.704Z,24.90
2018-03-26T13:12:30.929Z,24.80
2018-03-26T13:15:00.879Z,24.90
2018-03-26T13:17:30.827Z,27.87
2018-03-26T13:20:00.106Z,22.97
2018-03-26T13:22:29.288Z,24.07
2018-03-26T13:24:58.518Z,26.60
2018-03-26T13:27:27.773Z,28.00
2018-03-26T13:29:56.960Z,28.13
2018-03-26T13:32:26.916Z,25.80
2018-03-26T13:34:56.099Z,27.63
2018-03-26T13:37:25.327Z,28.53
2018-03-26T13:39:54.540Z,28.43
2018-03-26T13:42:23.739Z,27.27
2018-03-26T13:44:52.951Z,27.10
2018-03-26T13:47:22.153Z,27.27
2018-03-26T13:49:51.322Z,22.50
2018-03-26T13:52:20.539Z,23.13
2018-03-26T13:54:49.789Z,23.20
2018-03-26T13:57:19.029Z,24.67
2018-03-26T13:59:48.226Z,23.97
2018-03-26T14:02:17.388Z,21.53
2018-03-26T14:04:46.772Z,27.03
2018-03-26T14:07:16.186Z,30.13
2018-03-26T14:09:57.140Z,32.63
2018-03-26T14:12:38.974Z,35.87
2018-03-26T14:15:20.078Z,35.97
2018-03-26T14:17:49.542Z,37.30
2018-03-26T14:20:19.581Z,38.20
2018-03-26T14:22:48.818Z,41.03
2018-03-26T14:25:18.029Z,36.30
2018-03-26T14:27:47.248Z,35.70
2018-03-26T14:30:16.559Z,44.13
2018-03-26T14:32:45.880Z,39.40
2018-03-26T14:38:19.797Z,36.13
2018-03-26T14:40:49.763Z,36.53
2018-03-26T14:43:18.987Z,34.83
2018-03-26T14:45:48.190Z,32.60
2018-03-26T14:48:17.420Z,37.80
2018-03-26T14:50:46.644Z,36.97
2018-03-26T14:53:15.928Z,38.77
2018-03-26T14:55:45.227Z,35.73
2018-03-26T14:58:14.541Z,38.33
2018-03-26T15:00:43.753Z,35.60
2018-03-26T15:03:12.949Z,39.13
2018-03-26T15:05:42.175Z,33.27
2018-03-26T15:08:11.399Z,36.10
2018-03-26T15:10:40.648Z,34.00
2018-03-26T15:13:09.816Z,33.00
2018-03-26T15:15:39.221Z,33.10
2018-03-26T15:18:08.537Z,34.47
2018-03-26T15:20:37.719Z,33.13
2018-03-26T15:23:06.963Z,36.50
2018-03-26T15:25:36.366Z,34.40
2018-03-26T15:28:05.688Z,38.47
2018-03-26T15:30:34.887Z,42.07
2018-03-26T15:33:04.077Z,40.67
2018-03-26T15:35:33.277Z,36.73
2018-03-26T15:38:02.508Z,34.97
2018-03-26T15:40:31.709Z,35.40
2018-03-26T15:43:00.963Z,35.03
2018-03-26T15:45:30.156Z,34.03
2018-03-26T15:47:59.353Z,36.30
2018-03-26T15:50:28.560Z,33.43
2018-03-26T15:52:57.777Z,34.03
2018-03-26T15:55:27.116Z,38.80
2018-03-26T15:58:07.785Z,34.87
2018-03-26T16:00:37.095Z,28.80
2018-03-26T16:03:11.836Z,35.93
2018-03-26T16:05:41.151Z,33.10
2018-03-26T16:08:10.368Z,35.57
2018-03-26T16:10:57.804Z,35.03
2018-03-26T16:13:27.087Z,31.97
2018-03-26T16:16:03.034Z,35.60
2018-03-26T16:18:33.297Z,33.97
2018-03-26T16:21:02.693Z,33.93
2018-03-26T16:23:38.806Z,36.23
2018-03-26T16:26:15.467Z,35.97
2018-03-26T16:32:06.050Z,37.10
2018-03-26T16:34:35.459Z,36.57
2018-03-26T16:37:04.689Z,37.13
2018-03-26T16:39:34.798Z,37.83
2018-03-26T16:42:16.008Z,37.63
2018-03-26T16:44:45.178Z,40.83
2018-03-26T16:47:14.438Z,40.27
2018-03-26T16:49:43.643Z,38.63
2018-03-26T16:55:32.120Z,37.70
2018-03-26T16:58:01.412Z,40.13
2018-03-26T17:00:34.222Z,39.20
2018-03-26T17:03:03.450Z,41.43
2018-03-26T17:05:32.660Z,42.20
2018-03-26T17:08:01.876Z,41.33
2018-03-26T17:10:31.136Z,42.47
2018-03-26T17:13:00.371Z,40.63
2018-03-26T17:15:29.651Z,40.17
2018-03-26T17:17:59.616Z,38.97
2018-03-26T17:20:28.868Z,39.07
2018-03-26T17:22:58.104Z,40.53
2018-03-26T17:25:28.129Z,39.07
2018-03-26T17:27:59.402Z,39.60
2018-03-26T17:30:28.623Z,39.50
2018-03-26T17:32:57.862Z,43.03
2018-03-26T17:35:27.107Z,39.57
2018-03-26T17:37:56.315Z,40.63
2018-03-26T17:40:39.712Z,38.30
2018-03-26T17:43:08.926Z,36.50
2018-03-26T17:45:38.167Z,38.80
2018-03-26T17:48:07.395Z,40.33
2018-03-26T17:50:36.639Z,45.63
2018-03-26T17:53:05.832Z,43.23
2018-03-26T17:55:35.105Z,41.50
2018-03-26T17:58:04.285Z,39.70
2018-03-26T18:00:33.464Z,42.90
2018-03-26T18:03:02.744Z,42.23
2018-03-26T18:05:31.936Z,44.13
2018-03-26T18:08:01.234Z,43.80
2018-03-26T18:10:30.665Z,44.40
2018-03-26T18:12:59.885Z,41.80
2018-03-26T18:15:29.109Z,41.67
2018-03-26T18:17:58.383Z,41.33
2018-03-26T18:20:27.635Z,45.63
2018-03-26T18:22:56.890Z,43.10
2018-03-26T18:25:26.915Z,42.97
2018-03-26T18:27:56.126Z,40.27
2018-03-26T18:30:25.382Z,42.23
2018-03-26T18:32:54.631Z,42.33
2018-03-26T18:35:25.723Z,41.10
2018-03-26T18:37:55.016Z,44.70
2018-03-26T18:40:45.082Z,40.90
2018-03-26T18:43:14.391Z,47.77
2018-03-26T18:45:47.168Z,39.50
2018-03-26T18:48:16.398Z,45.67
2018-03-26T18:50:46.403Z,43.30
2018-03-26T18:53:33.468Z,41.60
2018-03-26T18:56:04.130Z,41.30
2018-03-26T18:58:34.093Z,40.87
2018-03-26T19:01:14.602Z,39.97
2018-03-26T19:04:04.834Z,43.63
2018-03-26T19:06:34.899Z,44.30
2018-03-26T19:09:04.178Z,46.43
2018-03-26T19:11:33.421Z,45.77
2018-03-26T19:14:03.406Z,47.47
2018-03-26T19:16:36.785Z,47.20
2018-03-26T19:19:06.062Z,46.93
2018-03-26T19:21:37.561Z,43.93
2018-03-26T19:27:16.471Z,45.63
2018-03-26T19:36:02.134Z,46.87
2018-03-26T19:38:31.425Z,47.30
2018-03-26T19:41:00.603Z,43.60
2018-03-26T19:43:29.829Z,47.87
2018-03-26T19:45:59.172Z,43.17
2018-03-26T19:48:49.962Z,47.03
2018-03-26T19:57:28.283Z,42.17
2018-03-26T20:00:03.315Z,46.37
2018-03-26T20:02:32.721Z,49.57
2018-03-26T20:05:12.417Z,48.77
2018-03-26T20:07:41.589Z,47.50
2018-03-26T20:10:23.037Z,48.17
2018-03-26T20:12:52.234Z,45.70
2018-03-26T20:15:32.810Z,45.53
2018-03-26T20:18:02.819Z,49.67
2018-03-26T20:20:32.013Z,48.00
2018-03-26T20:23:01.213Z,47.43
2018-03-26T20:25:30.453Z,51.53
2018-03-26T20:28:00.585Z,51.47
2018-03-26T20:30:55.534Z,50.73
2018-03-26T20:33:25.041Z,49.23
2018-03-26T20:35:54.275Z,52.60
2018-03-26T20:38:23.636Z,51.20
2018-03-26T20:40:53.001Z,50.07
2018-03-26T20:43:37.078Z,46.73
2018-03-26T20:46:06.384Z,51.13
2018-03-26T20:48:35.612Z,54.23
2018-03-26T20:51:05.768Z,57.90
2018-03-26T20:53:35.002Z,53.73
2018-03-26T20:56:22.881Z,47.90
2018-03-26T20:58:52.192Z,55.10
2018-03-26T21:01:21.687Z,45.67
2018-03-26T21:03:51.681Z,43.00
2018-03-26T21:06:21.039Z,46.57
2018-03-26T21:08:50.248Z,40.80
2018-03-26T21:11:20.253Z,41.13
2018-03-26T21:14:13.770Z,41.20
2018-03-26T21:16:42.984Z,53.37
2018-03-26T21:19:12.967Z,45.27
2018-03-26T21:21:42.217Z,43.17
2018-03-26T21:24:11.691Z,39.80
2018-03-26T21:26:40.932Z,39.43
2018-03-26T21:29:10.956Z,39.67
2018-03-26T21:32:04.010Z,38.83
2018-03-26T21:34:34.029Z,39.87
2018-03-26T21:37:03.347Z,40.97
2018-03-26T21:39:32.610Z,42.17
2018-03-26T21:42:08.832Z,45.80
2018-03-26T21:44:38.145Z,41.53
2018-03-26T21:47:07.424Z,37.43
2018-03-26T21:49:36.874Z,37.90
2018-03-26T21:52:06.218Z,45.93
2018-03-26T21:54:36.528Z,37.73
2018-03-26T21:57:05.801Z,47.67
2018-03-26T21:59:35.905Z,37.07
2018-03-26T22:02:05.117Z,45.87
2018-03-26T22:04:35.305Z,48.20
2018-03-26T22:07:19.744Z,47.33
2018-03-26T22:09:49.100Z,48.00
2018-03-26T22:12:18.374Z,46.83
2018-03-26T22:15:11.412Z,51.30
2018-03-26T22:17:41.177Z,47.00
2018-03-26T22:20:10.354Z,51.47
2018-03-26T22:22:39.626Z,48.57
2018-03-26T22:25:08.822Z,52.50
2018-03-26T22:27:38.150Z,50.17
2018-03-26T22:30:08.286Z,47.83
2018-03-26T22:32:37.538Z,48.40
2018-03-26T22:35:06.919Z,44.10
2018-03-26T22:37:36.224Z,46.60
2018-03-26T22:40:05.469Z,47.43
2018-03-26T22:42:35.541Z,45.30
2018-03-26T22:45:04.711Z,49.33
2018-03-26T22:47:34.911Z,50.73
2018-03-26T22:50:04.326Z,47.67
2018-03-26T22:55:29.271Z,48.23
2018-03-26T22:57:59.713Z,44.00
2018-03-26T23:00:28.931Z,51.77
2018-03-26T23:02:58.216Z,48.20
2018-03-26T23:05:27.552Z,47.30
2018-03-26T23:07:57.032Z,44.70
2018-03-26T23:10:26.296Z,48.87
2018-03-26T23:12:56.357Z,46.50
2018-03-26T23:15:33.000Z,48.67
2018-03-26T23:18:02.471Z,46.87
2018-03-26T23:20:32.449Z,46.23
2018-03-26T23:23:01.747Z,40.00
2018-03-26T23:25:31.065Z,39.00
2018-03-26T23:28:00.373Z,42.23
2018-03-26T23:30:30.392Z,40.17
2018-03-26T23:32:59.610Z,40.20
2018-03-26T23:35:33.467Z,39.13
2018-03-26T23:38:04.040Z,40.17
2018-03-26T23:40:33.258Z,42.23
2018-03-26T23:43:03.327Z,44.10
2018-03-26T23:45:32.545Z,43.80
2018-03-26T23:48:01.989Z,39.30
2018-03-26T23:50:31.958Z,37.93
2018-03-26T23:53:01.292Z,44.30
2018-03-26T23:55:30.569Z,43.90
2018-03-26T23:57:59.772Z,40.70
